Agenda, Kansas
Current Conditions -  °F | °C
As of 5:55 AM on Saturday 01 Nov 2014 (Local Time) from KCNK Reporting Station
Clear Clear  
Wind Chill: 21°   Ceiling: Unl
Heat Index: 30°   Visibility: 10mi
Dew Point: 19°   Wind: 10mph
Humidity: 64%   Direction: 140°SE
Pressure: 30.37"   Gusts: NA
Location:  39.71°N, 97.43°W
Report Text: KCNK 011055Z AUTO 14009KT 10SM CLR M01/M07 A3037 RMK AO2 SLP293 T10111072
Loading
Personal Weather Stations






























Interactive Weather Map
Tropical Storm Tracking
New forecast layout! Learn more

10-Day Weather Forecast

Advertisements
Track Severe Weather on mobile